Time;durP1;ratioP1;P1;durP2;ratioP2;P2;SDS_P1;SDS_P2;PMS_P1;PMS_P2;Temp;Humidity;BMP_temperature;BMP_pressure;BME280_temperature;BME280_humidity;BME280_pressure;Samples;Min_cycle;Max_cycle;Signal;HPM_P1;HPM_P2
2022/05/21 00:02:05;;;;;;;;;4.50;3.00;;;;;;;;5125387;27;62040;-78
2022/05/21 00:04:30;;;;;;;;;3.00;2.00;;;;;;;;5126181;27;61819;-77
2022/05/21 00:06:57;;;;;;;;;3.00;2.00;;;;;;;;5123525;27;64387;-77
2022/05/21 00:09:27;;;;;;;;;2.00;2.00;;;;;;;;5124177;27;61858;-77
2022/05/21 00:11:53;;;;;;;;;1.75;1.75;;;;;;;;5125333;27;62396;-77
2022/05/21 00:14:20;;;;;;;;;1.00;1.00;;;;;;;;5125638;27;62227;-77
2022/05/21 00:16:46;;;;;;;;;3.00;1.25;;;;;;;;5124907;27;61744;-77
2022/05/21 00:19:11;;;;;;;;;1.00;1.00;;;;;;;;5125034;27;61929;-77
2022/05/21 00:21:38;;;;;;;;;2.50;2.25;;;;;;;;5125495;27;62213;-77
2022/05/21 00:24:03;;;;;;;;;2.25;2.00;;;;;;;;5124087;27;62040;-77
2022/05/21 00:26:29;;;;;;;;;2.75;2.75;;;;;;;;5124867;27;61815;-77
2022/05/21 00:28:54;;;;;;;;;6.00;3.75;;;;;;;;5125320;27;61696;-77
2022/05/21 00:31:19;;;;;;;;;3.50;3.50;;;;;;;;5118643;27;61969;-77
2022/05/21 00:33:45;;;;;;;;;3.00;3.00;;;;;;;;5124788;27;62193;-77
2022/05/21 00:36:11;;;;;;;;;3.25;2.00;;;;;;;;5123381;27;63223;-77
2022/05/21 00:38:37;;;;;;;;;2.00;2.00;;;;;;;;5125097;27;62016;-77
2022/05/21 00:41:04;;;;;;;;;3.00;3.00;;;;;;;;5125082;27;61892;-77
2022/05/21 00:43:33;;;;;;;;;7.75;4.75;;;;;;;;5125392;27;61867;-77
2022/05/21 00:45:59;;;;;;;;;5.50;3.75;;;;;;;;5123928;27;62325;-77
2022/05/21 00:48:24;;;;;;;;;3.75;3.00;;;;;;;;5123386;27;62224;-77
2022/05/21 00:50:50;;;;;;;;;3.00;2.25;;;;;;;;5125143;27;61818;-77
2022/05/21 00:53:15;;;;;;;;;6.00;5.00;;;;;;;;5125095;27;61877;-77
2022/05/21 00:55:41;;;;;;;;;4.50;3.50;;;;;;;;5124272;27;61963;-77
2022/05/21 01:00:55;;;;;;;;;7.00;4.25;;;;;;;;5124827;27;61768;-77
2022/05/21 01:03:20;;;;;;;;;3.25;3.00;;;;;;;;5124770;27;61958;-77
2022/05/21 01:05:46;;;;;;;;;6.50;3.00;;;;;;;;5122833;27;63942;-77
2022/05/21 01:08:12;;;;;;;;;4.50;3.00;;;;;;;;5127263;27;61917;-76
2022/05/21 01:10:40;;;;;;;;;5.25;4.00;;;;;;;;5131491;27;61948;-77
2022/05/21 01:13:11;;;;;;;;;2.00;2.00;;;;;;;;5125488;27;61788;-77
2022/05/21 01:15:39;;;;;;;;;5.75;3.50;;;;;;;;5119393;27;64141;-77
2022/05/21 01:18:07;;;;;;;;;4.00;4.00;;;;;;;;5104139;27;61768;-77
2022/05/21 01:20:38;;;;;;;;;3.00;3.00;;;;;;;;5104673;27;61787;-77
2022/05/21 01:23:03;;;;;;;;;4.00;3.00;;;;;;;;5103058;27;61875;-77
2022/05/21 01:25:31;;;;;;;;;4.00;4.00;;;;;;;;5103876;27;63119;-76
2022/05/21 01:28:00;;;;;;;;;3.00;3.00;;;;;;;;5104119;27;61686;-77
2022/05/21 01:30:45;;;;;;;;;2.25;1.75;;;;;;;;5109725;27;61908;-77
2022/05/21 01:33:12;;;;;;;;;3.00;2.00;;;;;;;;5102436;27;63266;-76
2022/05/21 01:35:39;;;;;;;;;1.25;0.25;;;;;;;;5103192;27;62246;-77
2022/05/21 01:38:05;;;;;;;;;3.00;3.00;;;;;;;;5103112;27;61813;-77
2022/05/21 01:40:30;;;;;;;;;2.75;2.50;;;;;;;;5103820;27;61930;-77
2022/05/21 01:45:40;;;;;;;;;5.00;2.00;;;;;;;;5102980;27;61905;-76
2022/05/21 01:48:05;;;;;;;;;3.50;3.00;;;;;;;;5103215;27;61822;-77
2022/05/21 01:50:31;;;;;;;;;2.75;1.75;;;;;;;;5103773;27;62144;-77
2022/05/21 01:52:59;;;;;;;;;4.00;3.00;;;;;;;;5102022;27;61711;-77
2022/05/21 01:55:25;;;;;;;;;4.00;3.00;;;;;;;;5101478;27;64620;-76
2022/05/21 01:57:50;;;;;;;;;2.50;1.00;;;;;;;;5102890;27;62003;-77
2022/05/21 02:00:16;;;;;;;;;4.00;3.00;;;;;;;;5103310;27;62057;-77
2022/05/21 02:02:41;;;;;;;;;1.50;1.50;;;;;;;;5103272;27;61994;-77
2022/05/21 02:05:07;;;;;;;;;1.00;1.00;;;;;;;;5102458;27;61986;-77
2022/05/21 02:07:32;;;;;;;;;8.75;2.00;;;;;;;;5103243;27;61895;-76
2022/05/21 02:09:58;;;;;;;;;3.00;1.50;;;;;;;;5102937;27;61761;-77
2022/05/21 02:12:24;;;;;;;;;3.00;1.25;;;;;;;;5101596;27;61853;-77
2022/05/21 02:14:50;;;;;;;;;1.25;1.25;;;;;;;;5115157;27;61916;-77
2022/05/21 02:17:16;;;;;;;;;1.00;1.00;;;;;;;;5121622;27;61682;-77
2022/05/21 02:19:42;;;;;;;;;3.00;2.00;;;;;;;;5123811;27;61710;-77
2022/05/21 02:22:07;;;;;;;;;1.25;1.25;;;;;;;;5122743;27;62427;-77
2022/05/21 02:24:32;;;;;;;;;2.75;1.50;;;;;;;;5122899;27;62566;-77
2022/05/21 02:27:01;;;;;;;;;1.75;1.00;;;;;;;;5121998;27;61731;-77
2022/05/21 02:29:26;;;;;;;;;2.00;1.00;;;;;;;;5122466;27;62005;-77
2022/05/21 02:31:51;;;;;;;;;3.00;1.00;;;;;;;;5117323;27;61749;-77
2022/05/21 02:34:17;;;;;;;;;5.25;2.50;;;;;;;;5122184;27;62048;-77
2022/05/21 02:39:27;;;;;;;;;2.00;2.00;;;;;;;;5124230;27;61866;-76
2022/05/21 02:41:53;;;;;;;;;2.00;2.00;;;;;;;;5123719;27;61933;-77
2022/05/21 02:44:19;;;;;;;;;1.75;1.75;;;;;;;;5122425;27;62925;-77
2022/05/21 02:46:44;;;;;;;;;2.25;2.00;;;;;;;;5123444;27;62105;-77
2022/05/21 02:49:09;;;;;;;;;2.00;2.00;;;;;;;;5121357;27;62003;-77
2022/05/21 02:51:35;;;;;;;;;1.75;1.00;;;;;;;;5123336;27;61808;-77
2022/05/21 02:54:00;;;;;;;;;2.00;2.00;;;;;;;;5121055;27;64708;-77
2022/05/21 02:56:25;;;;;;;;;3.00;1.00;;;;;;;;5122692;27;62073;-77
2022/05/21 02:58:50;;;;;;;;;5.50;3.00;;;;;;;;5123263;27;61853;-77
2022/05/21 03:01:17;;;;;;;;;1.00;1.00;;;;;;;;5123083;27;62047;-77
2022/05/21 03:03:42;;;;;;;;;2.00;1.00;;;;;;;;5121492;27;61905;-77
2022/05/21 03:06:08;;;;;;;;;1.00;1.00;;;;;;;;5122582;27;61923;-77
2022/05/21 03:11:17;;;;;;;;;3.00;2.00;;;;;;;;5122720;27;61783;-77
2022/05/21 03:13:42;;;;;;;;;1.50;1.00;;;;;;;;5120413;27;63458;-77
2022/05/21 03:16:08;;;;;;;;;2.00;2.00;;;;;;;;5121559;27;62102;-77
2022/05/21 03:18:34;;;;;;;;;1.50;1.50;;;;;;;;5122633;27;61738;-77
2022/05/21 03:21:00;;;;;;;;;3.00;1.50;;;;;;;;5123091;27;62186;-77
2022/05/21 03:23:25;;;;;;;;;1.00;1.00;;;;;;;;5121987;27;61949;-77
2022/05/21 03:25:50;;;;;;;;;2.75;1.25;;;;;;;;5122460;27;61764;-76
2022/05/21 03:28:17;;;;;;;;;1.50;1.50;;;;;;;;5122693;27;61779;-77
2022/05/21 03:30:42;;;;;;;;;1.50;1.50;;;;;;;;5116882;27;61779;-77
2022/05/21 03:33:08;;;;;;;;;1.00;1.00;;;;;;;;5123810;27;62216;-77
2022/05/21 03:35:34;;;;;;;;;2.00;1.00;;;;;;;;5126188;27;62256;-77
2022/05/21 03:38:00;;;;;;;;;2.00;1.00;;;;;;;;5125865;27;61670;-77
2022/05/21 03:40:27;;;;;;;;;0.00;0.00;;;;;;;;5126136;27;61707;-77
2022/05/21 03:42:52;;;;;;;;;0.25;0.25;;;;;;;;5124287;27;64919;-77
2022/05/21 03:45:18;;;;;;;;;1.50;1.00;;;;;;;;5125761;27;61745;-77
2022/05/21 03:47:43;;;;;;;;;0.25;0.25;;;;;;;;5125597;27;61663;-77
2022/05/21 03:50:10;;;;;;;;;1.25;0.00;;;;;;;;5124854;27;61894;-77
2022/05/21 03:52:35;;;;;;;;;2.00;0.00;;;;;;;;5125261;27;61852;-77
2022/05/21 03:55:00;;;;;;;;;1.00;0.00;;;;;;;;5125507;27;61908;-77
2022/05/21 03:57:26;;;;;;;;;0.50;0.50;;;;;;;;5125709;27;62290;-77
2022/05/21 03:59:51;;;;;;;;;2.00;1.00;;;;;;;;5126089;27;61967;-77
2022/05/21 04:02:17;;;;;;;;;4.25;2.00;;;;;;;;5124620;27;61991;-77
2022/05/21 04:04:42;;;;;;;;;1.75;0.75;;;;;;;;5125626;27;61903;-76
2022/05/21 04:07:08;;;;;;;;;1.00;1.00;;;;;;;;5124300;27;62064;-76
2022/05/21 04:09:33;;;;;;;;;1.75;0.75;;;;;;;;5125407;27;61858;-77
2022/05/21 04:11:59;;;;;;;;;1.00;1.00;;;;;;;;5125093;27;62468;-77
2022/05/21 04:14:29;;;;;;;;;3.75;1.00;;;;;;;;5125282;27;62046;-77
2022/05/21 04:16:55;;;;;;;;;3.00;3.00;;;;;;;;5124402;27;62078;-77
2022/05/21 04:19:21;;;;;;;;;1.50;1.25;;;;;;;;5123936;27;61822;-76
2022/05/21 04:21:46;;;;;;;;;2.50;1.00;;;;;;;;5124623;27;62922;-77
2022/05/21 04:24:11;;;;;;;;;1.00;1.00;;;;;;;;5123721;27;62092;-77
2022/05/21 04:26:36;;;;;;;;;2.75;1.00;;;;;;;;5123904;27;62120;-77
2022/05/21 04:29:02;;;;;;;;;0.75;0.75;;;;;;;;5125585;27;61972;-77
2022/05/21 04:31:27;;;;;;;;;0.25;0.00;;;;;;;;5118247;27;61845;-77
2022/05/21 04:33:52;;;;;;;;;0.25;0.25;;;;;;;;5124686;27;61863;-77
2022/05/21 04:36:17;;;;;;;;;0.00;0.00;;;;;;;;5125435;27;62128;-77
2022/05/21 04:38:43;;;;;;;;;1.00;1.00;;;;;;;;5124884;27;62017;-77
2022/05/21 04:41:08;;;;;;;;;0.75;0.75;;;;;;;;5124705;27;61823;-77
2022/05/21 04:43:33;;;;;;;;;2.00;0.00;;;;;;;;5123937;27;62072;-77
2022/05/21 04:45:59;;;;;;;;;3.50;1.00;;;;;;;;5125035;27;61897;-77
2022/05/21 04:48:25;;;;;;;;;1.00;0.50;;;;;;;;5123580;27;61798;-77
2022/05/21 04:50:50;;;;;;;;;1.00;1.00;;;;;;;;5124728;27;61827;-77
2022/05/21 04:53:15;;;;;;;;;3.50;1.75;;;;;;;;5123195;27;62150;-77
2022/05/21 04:55:40;;;;;;;;;1.00;1.00;;;;;;;;5124803;27;61872;-77
2022/05/21 04:58:06;;;;;;;;;2.00;2.00;;;;;;;;5123721;27;61953;-77
2022/05/21 05:00:31;;;;;;;;;1.75;1.75;;;;;;;;5124072;27;61714;-77
2022/05/21 05:02:58;;;;;;;;;2.50;1.00;;;;;;;;5124497;27;62174;-77
2022/05/21 05:05:23;;;;;;;;;2.50;2.50;;;;;;;;5124877;27;63216;-77
2022/05/21 05:07:50;;;;;;;;;0.75;0.50;;;;;;;;5123733;27;61660;-76
2022/05/21 05:10:16;;;;;;;;;3.25;1.00;;;;;;;;5123994;27;62329;-79
2022/05/21 05:12:46;;;;;;;;;3.50;3.00;;;;;;;;5124554;27;61987;-77
2022/05/21 05:15:11;;;;;;;;;2.00;2.00;;;;;;;;5124498;27;61773;-77
2022/05/21 05:17:36;;;;;;;;;2.50;1.75;;;;;;;;5124276;27;62105;-77
2022/05/21 05:20:02;;;;;;;;;2.00;2.00;;;;;;;;5124057;27;63145;-77
2022/05/21 05:22:28;;;;;;;;;3.00;2.00;;;;;;;;5122691;27;61954;-77
2022/05/21 05:24:53;;;;;;;;;1.25;1.25;;;;;;;;5124657;27;61922;-77
2022/05/21 05:27:18;;;;;;;;;3.00;3.00;;;;;;;;5124870;27;61838;-77
2022/05/21 05:29:43;;;;;;;;;5.50;3.00;;;;;;;;5123733;27;62758;-77
2022/05/21 05:32:09;;;;;;;;;2.75;2.75;;;;;;;;5121974;27;61740;-75
2022/05/21 05:34:34;;;;;;;;;2.50;1.00;;;;;;;;5124052;27;62094;-76
2022/05/21 05:37:01;;;;;;;;;3.25;3.00;;;;;;;;5124339;27;62302;-75
2022/05/21 05:39:26;;;;;;;;;4.25;2.00;;;;;;;;5122462;27;64001;-76
2022/05/21 05:41:51;;;;;;;;;4.00;4.00;;;;;;;;5123983;27;61780;-75
2022/05/21 05:44:17;;;;;;;;;2.75;2.75;;;;;;;;5122727;27;61834;-78
2022/05/21 05:46:42;;;;;;;;;2.00;2.00;;;;;;;;5124396;27;61770;-76
2022/05/21 05:49:08;;;;;;;;;1.50;1.00;;;;;;;;5123155;27;62620;-75
2022/05/21 05:51:33;;;;;;;;;3.50;2.50;;;;;;;;5123439;27;61811;-75
2022/05/21 05:54:02;;;;;;;;;4.75;2.00;;;;;;;;5123752;27;61913;-76
2022/05/21 05:56:27;;;;;;;;;2.75;1.25;;;;;;;;5123408;27;61653;-76
2022/05/21 06:01:37;;;;;;;;;1.00;1.00;;;;;;;;5120875;27;61871;-75
2022/05/21 06:04:02;;;;;;;;;1.00;1.00;;;;;;;;5122416;27;61767;-76
2022/05/21 06:06:28;;;;;;;;;2.00;2.00;;;;;;;;5122209;27;62131;-76
2022/05/21 06:08:53;;;;;;;;;1.00;1.00;;;;;;;;5119261;27;62588;-75
2022/05/21 06:11:19;;;;;;;;;3.25;1.00;;;;;;;;5122976;27;61913;-75
2022/05/21 06:13:44;;;;;;;;;3.00;2.25;;;;;;;;5121174;27;62223;-75
2022/05/21 06:16:09;;;;;;;;;2.75;2.00;;;;;;;;5123409;27;61918;-75
2022/05/21 06:18:35;;;;;;;;;1.00;1.00;;;;;;;;5121938;27;62586;-76
2022/05/21 06:21:01;;;;;;;;;3.50;1.50;;;;;;;;5121396;27;61982;-76
2022/05/21 06:23:27;;;;;;;;;2.00;1.00;;;;;;;;5123345;27;61988;-76
2022/05/21 06:25:52;;;;;;;;;2.75;1.50;;;;;;;;5123461;27;61906;-76
2022/05/21 06:28:17;;;;;;;;;1.00;1.00;;;;;;;;5122868;27;62387;-76
2022/05/21 06:30:44;;;;;;;;;1.00;1.00;;;;;;;;5116935;27;61921;-76
2022/05/21 06:33:19;;;;;;;;;1.00;1.00;;;;;;;;5123211;27;61953;-77
2022/05/21 06:35:46;;;;;;;;;1.00;1.00;;;;;;;;5123311;27;61931;-77
2022/05/21 06:38:11;;;;;;;;;1.00;1.00;;;;;;;;5122389;27;62555;-77
2022/05/21 06:40:36;;;;;;;;;0.75;0.75;;;;;;;;5123498;27;61636;-76
2022/05/21 06:43:01;;;;;;;;;1.00;1.00;;;;;;;;5122991;27;61711;-77
2022/05/21 06:45:28;;;;;;;;;4.00;2.00;;;;;;;;5122907;27;61905;-75
2022/05/21 06:47:53;;;;;;;;;2.50;1.50;;;;;;;;5121567;27;61708;-75
2022/05/21 06:50:18;;;;;;;;;1.50;1.00;;;;;;;;5121742;27;62160;-75
2022/05/21 06:52:44;;;;;;;;;1.00;1.00;;;;;;;;5123280;27;61876;-76
2022/05/21 06:55:09;;;;;;;;;4.75;1.00;;;;;;;;5122697;27;61893;-75
2022/05/21 06:57:34;;;;;;;;;1.25;1.00;;;;;;;;5120732;27;63479;-75
2022/05/21 07:00:00;;;;;;;;;1.00;1.00;;;;;;;;5122206;27;61673;-75
2022/05/21 07:02:25;;;;;;;;;1.00;1.00;;;;;;;;5122567;27;62079;-75
2022/05/21 07:07:43;;;;;;;;;1.00;1.00;;;;;;;;5123476;27;61899;-75
2022/05/21 07:10:10;;;;;;;;;0.50;0.50;;;;;;;;5125697;27;61922;-76
2022/05/21 07:12:35;;;;;;;;;2.00;0.00;;;;;;;;5126511;27;62010;-74
2022/05/21 07:15:01;;;;;;;;;1.00;1.00;;;;;;;;5126196;27;61772;-75
2022/05/21 07:17:27;;;;;;;;;0.00;0.00;;;;;;;;5123726;27;63614;-76
2022/05/21 07:19:52;;;;;;;;;0.00;0.00;;;;;;;;5125994;27;62008;-75
2022/05/21 07:22:17;;;;;;;;;2.00;1.00;;;;;;;;5126313;27;61733;-75
2022/05/21 07:24:43;;;;;;;;;2.00;1.00;;;;;;;;5126546;27;61822;-75
2022/05/21 07:27:09;;;;;;;;;2.00;1.00;;;;;;;;5125506;27;62695;-75
2022/05/21 07:29:38;;;;;;;;;2.00;0.25;;;;;;;;5126288;27;61771;-75
2022/05/21 07:32:04;;;;;;;;;0.00;0.00;;;;;;;;5119572;27;61688;-75
2022/05/21 07:34:29;;;;;;;;;0.25;0.25;;;;;;;;5125944;27;61950;-75
2022/05/21 07:36:54;;;;;;;;;1.00;0.00;;;;;;;;5125395;27;62813;-76
2022/05/21 07:39:20;;;;;;;;;0.00;0.00;;;;;;;;5125873;27;61684;-75
2022/05/21 07:41:45;;;;;;;;;0.75;0.75;;;;;;;;5126178;27;61704;-75
2022/05/21 07:44:10;;;;;;;;;1.00;0.00;;;;;;;;5124510;27;61892;-75
2022/05/21 07:46:35;;;;;;;;;0.50;0.00;;;;;;;;5124669;27;62791;-75
2022/05/21 07:49:01;;;;;;;;;0.00;0.00;;;;;;;;5123968;27;61906;-75
2022/05/21 07:51:26;;;;;;;;;0.00;0.00;;;;;;;;5126313;27;62075;-75
2022/05/21 07:53:51;;;;;;;;;2.00;0.00;;;;;;;;5125967;27;61787;-75
2022/05/21 07:56:17;;;;;;;;;1.00;1.00;;;;;;;;5125211;27;62640;-75
2022/05/21 07:58:43;;;;;;;;;0.00;0.00;;;;;;;;5124292;27;61898;-75
2022/05/21 08:01:10;;;;;;;;;0.00;0.00;;;;;;;;5125612;27;61853;-74
2022/05/21 08:03:35;;;;;;;;;0.00;0.00;;;;;;;;5124220;27;61837;-75
2022/05/21 08:06:01;;;;;;;;;0.00;0.00;;;;;;;;5122527;27;64244;-75
2022/05/21 08:08:26;;;;;;;;;1.00;0.00;;;;;;;;5122697;27;62082;-75
2022/05/21 08:10:51;;;;;;;;;0.00;0.00;;;;;;;;5124644;27;62486;-78
2022/05/21 08:13:17;;;;;;;;;1.00;0.00;;;;;;;;5124754;27;62128;-76
2022/05/21 08:15:43;;;;;;;;;0.00;0.00;;;;;;;;5124181;27;61805;-75
2022/05/21 08:18:08;;;;;;;;;0.00;0.00;;;;;;;;5123604;27;61858;-76
2022/05/21 08:20:34;;;;;;;;;1.00;0.00;;;;;;;;5123480;27;62182;-80
2022/05/21 08:28:28;;;;;;;;;0.25;0.00;;;;;;;;5122869;27;62099;-80
2022/05/21 08:30:56;;;;;;;;;0.25;0.00;;;;;;;;5120780;27;61844;-81
2022/05/21 08:33:24;;;;;;;;;0.00;0.00;;;;;;;;5122606;27;61978;-80
2022/05/21 08:35:50;;;;;;;;;0.25;0.00;;;;;;;;5118462;27;63962;-81
2022/05/21 08:38:16;;;;;;;;;0.25;0.25;;;;;;;;5123068;27;61944;-80
2022/05/21 08:40:44;;;;;;;;;2.75;0.00;;;;;;;;5123922;27;61665;-80
2022/05/21 08:43:16;;;;;;;;;0.00;0.00;;;;;;;;5121907;27;61869;-80
2022/05/21 08:46:20;;;;;;;;;3.00;1.50;;;;;;;;5120166;27;61831;-80
2022/05/21 08:48:55;;;;;;;;;1.00;1.00;;;;;;;;5077744;28;62115;-80
2022/05/21 08:51:23;;;;;;;;;1.00;0.00;;;;;;;;5063755;28;62068;-81
2022/05/21 08:53:50;;;;;;;;;1.00;1.00;;;;;;;;5062592;28;62122;-80
2022/05/21 08:56:15;;;;;;;;;0.00;0.00;;;;;;;;5080524;27;62019;-81
2022/05/21 08:58:46;;;;;;;;;1.75;0.00;;;;;;;;5063437;28;62127;-80
2022/05/21 09:01:12;;;;;;;;;0.00;0.00;;;;;;;;5063871;28;61769;-80
2022/05/21 09:03:38;;;;;;;;;0.75;0.00;;;;;;;;5080521;28;61951;-80
2022/05/21 09:06:03;;;;;;;;;0.50;0.50;;;;;;;;5080511;28;61898;-80
2022/05/21 09:08:46;;;;;;;;;0.00;0.00;;;;;;;;5080647;27;62059;-81
2022/05/21 09:11:15;;;;;;;;;0.00;0.00;;;;;;;;5080776;27;61988;-81
2022/05/21 09:13:49;;;;;;;;;0.25;0.25;;;;;;;;5063415;28;61853;-80
2022/05/21 09:19:00;;;;;;;;;0.00;0.00;;;;;;;;5092859;27;62014;-80
2022/05/21 09:21:27;;;;;;;;;2.75;0.00;;;;;;;;5124242;27;62382;-80
2022/05/21 09:24:01;;;;;;;;;1.00;1.00;;;;;;;;5114995;27;62191;-80
2022/05/21 09:26:43;;;;;;;;;0.00;0.00;;;;;;;;5122243;27;64467;-80
2022/05/21 09:29:25;;;;;;;;;0.00;0.00;;;;;;;;5124274;27;62001;-81
2022/05/21 09:31:53;;;;;;;;;0.00;0.00;;;;;;;;5123793;27;62131;-81
2022/05/21 09:34:26;;;;;;;;;2.00;2.00;;;;;;;;5122501;27;62275;-81
2022/05/21 09:36:52;;;;;;;;;0.00;0.00;;;;;;;;5122021;27;64760;-81
2022/05/21 09:39:30;;;;;;;;;0.00;0.00;;;;;;;;5123513;27;62173;-81
2022/05/21 09:42:12;;;;;;;;;0.75;0.75;;;;;;;;5124116;27;61850;-81
2022/05/21 09:47:27;;;;;;;;;1.25;1.25;;;;;;;;5123382;27;62451;-81
2022/05/21 09:50:19;;;;;;;;;1.00;1.00;;;;;;;;5123140;27;62031;-81
2022/05/21 09:52:47;;;;;;;;;0.00;0.00;;;;;;;;5117137;27;62175;-81
2022/05/21 09:55:22;;;;;;;;;2.25;0.00;;;;;;;;5120635;27;62082;-81
2022/05/21 09:57:47;;;;;;;;;0.25;0.00;;;;;;;;5121888;27;62877;-79
2022/05/21 10:00:16;;;;;;;;;1.00;1.00;;;;;;;;5121975;27;61816;-80
2022/05/21 10:02:45;;;;;;;;;0.75;0.00;;;;;;;;5122992;27;61705;-79
2022/05/21 10:05:13;;;;;;;;;4.25;0.00;;;;;;;;5122056;27;62346;-79
2022/05/21 10:13:13;;;;;;;;;0.00;0.00;;;;;;;;5120714;27;61835;-76
2022/05/21 10:15:42;;;;;;;;;0.50;0.50;;;;;;;;5120895;27;61946;-77
2022/05/21 10:18:08;;;;;;;;;1.00;1.00;;;;;;;;5119152;27;64416;-76
2022/05/21 10:20:38;;;;;;;;;0.75;0.75;;;;;;;;5120489;27;61926;-77
2022/05/21 10:23:22;;;;;;;;;0.50;0.00;;;;;;;;5121747;27;61759;-78
2022/05/21 10:26:06;;;;;;;;;1.00;1.00;;;;;;;;5119728;27;61732;-76
2022/05/21 10:28:48;;;;;;;;;0.00;0.00;;;;;;;;5118846;27;61708;-77
2022/05/21 10:31:22;;;;;;;;;1.00;1.00;;;;;;;;5119832;27;61925;-78
2022/05/21 10:34:24;;;;;;;;;0.00;0.00;;;;;;;;5119386;27;62344;-79
2022/05/21 10:37:01;;;;;;;;;0.50;0.50;;;;;;;;5041302;28;61925;-79
2022/05/21 10:39:39;;;;;;;;;0.00;0.00;;;;;;;;5040888;28;63788;-78
2022/05/21 10:42:23;;;;;;;;;3.00;3.00;;;;;;;;5040991;28;62015;-79
2022/05/21 10:44:58;;;;;;;;;2.00;2.00;;;;;;;;5041645;28;62376;-79
2022/05/21 10:47:26;;;;;;;;;3.25;3.00;;;;;;;;5059297;28;62123;-78
2022/05/21 10:50:11;;;;;;;;;1.00;1.00;;;;;;;;5040925;28;64988;-78
2022/05/21 10:53:01;;;;;;;;;2.25;2.00;;;;;;;;5058127;28;61885;-77
2022/05/21 10:55:32;;;;;;;;;3.75;2.00;;;;;;;;5058419;28;62259;-77
2022/05/21 10:58:16;;;;;;;;;0.75;0.75;;;;;;;;5059022;28;62068;-78
2022/05/21 11:00:44;;;;;;;;;2.00;0.25;;;;;;;;5057559;28;62907;-77
2022/05/21 11:03:12;;;;;;;;;0.50;0.50;;;;;;;;5040687;28;62099;-77
2022/05/21 11:05:43;;;;;;;;;0.75;0.75;;;;;;;;5039548;28;62178;-77
2022/05/21 11:08:13;;;;;;;;;0.00;0.00;;;;;;;;5041120;28;62409;-78
2022/05/21 11:10:57;;;;;;;;;2.00;1.00;;;;;;;;5081835;27;63254;-77
2022/05/21 11:13:22;;;;;;;;;1.00;0.00;;;;;;;;5121262;27;61866;-77
2022/05/21 11:15:52;;;;;;;;;1.00;1.00;;;;;;;;5119366;27;62032;-76
2022/05/21 11:18:25;;;;;;;;;0.75;0.75;;;;;;;;5118367;27;62110;-77
2022/05/21 11:21:12;;;;;;;;;1.00;1.00;;;;;;;;5121099;27;61851;-77
2022/05/21 11:23:58;;;;;;;;;0.00;0.00;;;;;;;;5119417;27;61799;-77
2022/05/21 11:26:28;;;;;;;;;0.00;0.00;;;;;;;;5119426;27;62062;-78
2022/05/21 11:29:17;;;;;;;;;2.50;1.00;;;;;;;;5121072;27;61768;-78
2022/05/21 11:37:47;;;;;;;;;0.67;0.00;;;;;;;;5119312;27;61901;-80
2022/05/21 11:40:31;;;;;;;;;0.33;0.33;;;;;;;;5117488;27;62226;-77
2022/05/21 11:42:57;;;;;;;;;0.00;0.00;;;;;;;;5117697;27;61926;-77
2022/05/21 11:45:24;;;;;;;;;2.00;1.00;;;;;;;;5121871;27;61943;-77
2022/05/21 11:48:10;;;;;;;;;0.67;0.67;;;;;;;;5120603;27;61761;-76
2022/05/21 11:50:36;;;;;;;;;3.00;3.00;;;;;;;;5118194;27;62021;-77
2022/05/21 11:53:24;;;;;;;;;1.00;1.00;;;;;;;;5120240;27;62651;-77
2022/05/21 11:55:55;;;;;;;;;0.67;0.67;;;;;;;;5121442;27;62029;-77
2022/05/21 11:58:24;;;;;;;;;1.33;0.67;;;;;;;;5124005;27;61961;-77
2022/05/21 12:00:50;;;;;;;;;0.33;0.33;;;;;;;;5124966;27;61662;-78
2022/05/21 12:03:17;;;;;;;;;0.67;0.67;;;;;;;;5123257;27;62747;-79
2022/05/21 12:05:46;;;;;;;;;3.00;1.67;;;;;;;;5106167;27;62314;-80
2022/05/21 12:08:33;;;;;;;;;1.00;1.00;;;;;;;;5124125;27;62540;-77
2022/05/21 12:11:06;;;;;;;;;1.00;1.00;;;;;;;;5125384;27;61966;-78
2022/05/21 12:13:34;;;;;;;;;1.00;1.00;;;;;;;;5121226;27;64149;-79
2022/05/21 12:16:01;;;;;;;;;0.00;0.00;;;;;;;;5114814;27;61754;-76
2022/05/21 12:18:33;;;;;;;;;1.00;1.00;;;;;;;;5123345;27;62568;-77
2022/05/21 12:21:00;;;;;;;;;0.00;0.00;;;;;;;;5123930;27;61961;-78
2022/05/21 12:23:31;;;;;;;;;2.00;1.00;;;;;;;;5123286;27;64559;-77
2022/05/21 12:26:02;;;;;;;;;0.33;0.33;;;;;;;;5124219;27;62152;-76
2022/05/21 12:28:33;;;;;;;;;1.67;0.33;;;;;;;;5125254;27;62065;-77
2022/05/21 12:31:00;;;;;;;;;0.00;0.00;;;;;;;;5122330;27;61759;-77
2022/05/21 12:33:32;;;;;;;;;1.67;1.00;;;;;;;;5124094;27;61880;-77
2022/05/21 12:36:07;;;;;;;;;2.00;1.00;;;;;;;;5123018;27;61705;-77
2022/05/21 12:38:35;;;;;;;;;2.00;1.00;;;;;;;;5121147;27;62200;-77
2022/05/21 12:41:08;;;;;;;;;1.00;1.00;;;;;;;;5123725;27;62200;-77
2022/05/21 12:43:44;;;;;;;;;0.33;0.33;;;;;;;;5121233;27;63831;-76
2022/05/21 12:46:21;;;;;;;;;0.00;0.00;;;;;;;;5121658;27;61765;-79
2022/05/21 12:48:47;;;;;;;;;2.67;0.33;;;;;;;;5121450;27;61780;-79
2022/05/21 12:51:21;;;;;;;;;1.00;1.00;;;;;;;;5122975;27;62120;-78
2022/05/21 12:53:48;;;;;;;;;1.00;0.33;;;;;;;;5123981;27;61814;-78
2022/05/21 12:56:16;;;;;;;;;0.33;0.33;;;;;;;;5124231;27;61719;-83
2022/05/21 12:58:41;;;;;;;;;0.00;0.00;;;;;;;;5122738;27;61999;-76
2022/05/21 13:01:06;;;;;;;;;1.00;1.00;;;;;;;;5123557;27;62095;-75
2022/05/21 13:03:33;;;;;;;;;1.00;1.00;;;;;;;;5123609;27;61903;-76
2022/05/21 13:06:04;;;;;;;;;0.00;0.00;;;;;;;;5123248;27;62001;-76
2022/05/21 13:08:31;;;;;;;;;0.00;0.00;;;;;;;;5124278;27;62177;-78
2022/05/21 13:11:00;;;;;;;;;0.00;0.00;;;;;;;;5123350;27;61871;-80
2022/05/21 13:13:26;;;;;;;;;1.00;1.00;;;;;;;;5122946;27;62454;-79
2022/05/21 13:15:57;;;;;;;;;2.00;0.00;;;;;;;;5123460;27;61768;-78
2022/05/21 13:18:22;;;;;;;;;0.33;0.33;;;;;;;;5123738;27;61826;-78
2022/05/21 13:21:06;;;;;;;;;0.67;0.00;;;;;;;;5122332;27;61782;-78
2022/05/21 13:23:46;;;;;;;;;1.00;1.00;;;;;;;;5101769;27;63561;-78
2022/05/21 13:26:18;;;;;;;;;0.67;0.00;;;;;;;;5102441;27;62041;-78
2022/05/21 13:28:43;;;;;;;;;0.00;0.00;;;;;;;;5113238;27;61779;-78
2022/05/21 13:31:16;;;;;;;;;1.00;1.00;;;;;;;;5123014;27;61733;-78
2022/05/21 13:33:46;;;;;;;;;1.00;1.00;;;;;;;;5122966;27;62873;-78
2022/05/21 13:36:13;;;;;;;;;2.00;0.67;;;;;;;;5124079;27;61810;-78
2022/05/21 13:38:39;;;;;;;;;0.00;0.00;;;;;;;;5122674;27;61766;-78
2022/05/21 13:41:09;;;;;;;;;0.67;0.00;;;;;;;;5124245;27;61800;-78
2022/05/21 13:43:38;;;;;;;;;0.00;0.00;;;;;;;;5122206;27;63530;-78
2022/05/21 13:46:04;;;;;;;;;0.00;0.00;;;;;;;;5122289;27;61949;-78
2022/05/21 13:48:37;;;;;;;;;0.33;0.33;;;;;;;;5122158;27;61847;-78
2022/05/21 13:51:03;;;;;;;;;0.33;0.33;;;;;;;;5124290;27;61939;-78
2022/05/21 13:53:30;;;;;;;;;1.00;1.00;;;;;;;;5123269;27;62708;-78
2022/05/21 13:55:55;;;;;;;;;1.00;1.00;;;;;;;;5123459;27;61865;-77
2022/05/21 13:58:28;;;;;;;;;1.00;1.00;;;;;;;;5123849;27;61760;-78
2022/05/21 14:00:54;;;;;;;;;1.00;1.00;;;;;;;;5123952;27;61795;-78
2022/05/21 14:03:25;;;;;;;;;2.33;0.00;;;;;;;;5122841;27;62736;-78
2022/05/21 14:06:00;;;;;;;;;1.33;0.00;;;;;;;;5123462;27;61726;-78
2022/05/21 14:08:36;;;;;;;;;1.00;1.00;;;;;;;;5122154;27;61755;-78
2022/05/21 14:11:06;;;;;;;;;1.00;0.00;;;;;;;;5123573;27;61802;-78
2022/05/21 14:13:31;;;;;;;;;0.00;0.00;;;;;;;;5121476;27;64646;-78
2022/05/21 14:16:02;;;;;;;;;1.00;0.00;;;;;;;;5121449;27;61791;-78
2022/05/21 14:18:33;;;;;;;;;0.00;0.00;;;;;;;;5120676;27;62045;-79
2022/05/21 14:21:01;;;;;;;;;0.67;0.00;;;;;;;;5122177;27;62047;-79
2022/05/21 14:23:31;;;;;;;;;0.67;0.00;;;;;;;;5122976;27;62000;-79
2022/05/21 14:26:17;;;;;;;;;0.00;0.00;;;;;;;;5122968;27;61692;-79
2022/05/21 14:28:43;;;;;;;;;0.00;0.00;;;;;;;;5123580;27;61887;-79
2022/05/21 14:31:28;;;;;;;;;0.33;0.33;;;;;;;;5123552;27;62109;-79
2022/05/21 14:34:01;;;;;;;;;0.33;0.33;;;;;;;;5122401;27;61656;-79
2022/05/21 14:36:28;;;;;;;;;0.33;0.33;;;;;;;;5121994;27;61933;-79
2022/05/21 14:38:54;;;;;;;;;0.33;0.00;;;;;;;;5121406;27;61841;-78
2022/05/21 14:41:33;;;;;;;;;0.33;0.33;;;;;;;;5123583;27;61768;-79
2022/05/21 14:44:02;;;;;;;;;0.67;0.67;;;;;;;;5122465;27;62848;-78
2022/05/21 14:49:12;;;;;;;;;0.00;0.00;;;;;;;;5122765;27;61901;-79
2022/05/21 14:54:23;;;;;;;;;0.33;0.00;;;;;;;;5122209;27;61927;-79
2022/05/21 14:56:49;;;;;;;;;0.00;0.00;;;;;;;;5122937;27;61966;-79
2022/05/21 14:59:15;;;;;;;;;0.00;0.00;;;;;;;;5121484;27;61779;-79
2022/05/21 15:01:40;;;;;;;;;0.00;0.00;;;;;;;;5121554;27;61895;-79
2022/05/21 15:04:06;;;;;;;;;0.67;0.67;;;;;;;;5121944;27;61896;-79
2022/05/21 15:06:33;;;;;;;;;0.00;0.00;;;;;;;;5122843;27;61914;-79
2022/05/21 15:09:03;;;;;;;;;1.33;0.67;;;;;;;;5122481;27;61818;-79
2022/05/21 15:11:29;;;;;;;;;0.00;0.00;;;;;;;;5121546;27;61753;-79
2022/05/21 15:13:54;;;;;;;;;0.00;0.00;;;;;;;;5116933;27;63468;-79
2022/05/21 15:16:20;;;;;;;;;0.00;0.00;;;;;;;;5101746;27;62090;-79
2022/05/21 15:18:46;;;;;;;;;0.00;0.00;;;;;;;;5119635;27;62057;-79
2022/05/21 15:21:18;;;;;;;;;0.00;0.00;;;;;;;;5122764;27;62137;-79
2022/05/21 15:23:43;;;;;;;;;0.00;0.00;;;;;;;;5120591;27;62803;-79
2022/05/21 15:26:08;;;;;;;;;1.00;0.00;;;;;;;;5122327;27;62123;-79
2022/05/21 15:28:34;;;;;;;;;0.00;0.00;;;;;;;;5124256;27;61885;-79
2022/05/21 15:31:00;;;;;;;;;0.00;0.00;;;;;;;;5124597;27;61695;-79
2022/05/21 15:33:25;;;;;;;;;0.00;0.00;;;;;;;;5123947;27;63574;-79
2022/05/21 15:35:51;;;;;;;;;1.00;0.00;;;;;;;;5126187;27;61855;-79